createdAt,value
2018-05-31T00:00:42.037Z,91.30
2018-05-31T00:03:09.641Z,91.40
2018-05-31T00:05:37.205Z,91.40
2018-05-31T00:08:04.785Z,91.10
2018-05-31T00:10:32.382Z,91.50
2018-05-31T00:12:59.937Z,91.40
2018-05-31T00:15:27.507Z,91.70
2018-05-31T00:17:55.132Z,92.00
2018-05-31T00:20:22.690Z,91.80
2018-05-31T00:22:50.254Z,91.70
2018-05-31T00:25:17.853Z,91.40
2018-05-31T00:27:45.416Z,91.50
2018-05-31T00:30:12.974Z,91.50
2018-05-31T00:32:40.579Z,91.50
2018-05-31T00:35:08.137Z,91.40
2018-05-31T00:37:35.704Z,91.10
2018-05-31T00:40:04.138Z,90.90
2018-05-31T00:42:31.728Z,90.90
2018-05-31T00:45:00.062Z,91.20
2018-05-31T00:47:27.659Z,91.10
2018-05-31T00:49:55.985Z,90.90
2018-05-31T00:52:23.543Z,91.10
2018-05-31T00:54:51.137Z,91.20
2018-05-31T00:57:18.704Z,91.30
2018-05-31T00:59:46.277Z,91.50
2018-05-31T01:02:13.906Z,91.60
2018-05-31T01:04:41.476Z,91.50
2018-05-31T01:07:09.042Z,91.60
2018-05-31T01:09:36.648Z,91.70
2018-05-31T01:12:04.980Z,92.00
2018-05-31T01:14:32.542Z,92.00
2018-05-31T01:17:00.139Z,91.70
2018-05-31T01:19:28.477Z,91.90
2018-05-31T01:21:56.059Z,91.90
2018-05-31T01:24:23.679Z,92.00
2018-05-31T01:26:51.238Z,92.10
2018-05-31T01:29:18.838Z,92.10
2018-05-31T01:31:46.401Z,92.00
2018-05-31T01:34:13.968Z,92.00
2018-05-31T01:36:41.521Z,92.00
2018-05-31T01:39:09.113Z,92.00
2018-05-31T01:41:36.670Z,92.10
2018-05-31T01:44:04.238Z,92.10
2018-05-31T01:46:31.860Z,92.10
2018-05-31T01:48:59.427Z,92.00
2018-05-31T01:51:26.986Z,92.00
2018-05-31T01:53:54.583Z,92.10
2018-05-31T01:56:22.921Z,91.20
2018-05-31T01:58:50.487Z,91.20
2018-05-31T02:01:18.086Z,91.00
2018-05-31T02:03:46.420Z,91.00
2018-05-31T02:06:16.681Z,91.00
2018-05-31T02:08:45.053Z,91.20
2018-05-31T02:11:13.392Z,91.50
2018-05-31T02:13:40.953Z,91.20
2018-05-31T02:16:08.555Z,91.20
2018-05-31T02:18:36.114Z,91.30
2018-05-31T02:21:03.681Z,91.40
2018-05-31T02:23:31.270Z,91.40
2018-05-31T02:25:58.831Z,91.40
2018-05-31T02:28:33.339Z,91.50
2018-05-31T02:31:01.729Z,91.70
2018-05-31T02:33:29.297Z,91.70
2018-05-31T02:35:56.863Z,91.70
2018-05-31T02:38:24.467Z,91.80
2018-05-31T02:40:52.023Z,91.90
2018-05-31T02:43:19.584Z,92.00
2018-05-31T02:45:47.187Z,92.30
2018-05-31T02:48:15.515Z,92.20
2018-05-31T02:50:43.075Z,92.20
2018-05-31T02:53:10.689Z,92.30
2018-05-31T02:55:39.017Z,92.50
2018-05-31T02:58:06.581Z,92.50
2018-05-31T03:00:34.172Z,92.60
2018-05-31T03:03:01.726Z,92.60
2018-05-31T03:05:29.286Z,92.60
2018-05-31T03:07:56.888Z,92.70
2018-05-31T03:10:24.788Z,92.80
2018-05-31T03:12:52.351Z,92.80
2018-05-31T03:15:19.964Z,92.50
2018-05-31T03:17:48.300Z,92.40
2018-05-31T03:20:15.865Z,92.40
2018-05-31T03:22:43.468Z,92.50
2018-05-31T03:25:11.800Z,92.60
2018-05-31T03:27:39.360Z,92.60
2018-05-31T03:30:06.965Z,92.60
2018-05-31T03:32:35.294Z,92.70
2018-05-31T03:35:02.863Z,93.00
2018-05-31T03:37:30.839Z,92.70
2018-05-31T03:39:58.402Z,92.70
2018-05-31T03:42:25.961Z,92.80
2018-05-31T03:44:53.570Z,92.70
2018-05-31T03:47:21.179Z,92.60
2018-05-31T03:49:48.697Z,92.40
2018-05-31T03:52:16.293Z,92.20
2018-05-31T03:54:43.865Z,92.10
2018-05-31T03:57:11.440Z,92.10
2018-05-31T03:59:39.072Z,92.10
2018-05-31T04:02:06.635Z,92.30
2018-05-31T04:04:34.194Z,92.00
2018-05-31T04:07:01.790Z,91.80
2018-05-31T04:09:29.362Z,91.90
2018-05-31T04:11:57.700Z,92.10
2018-05-31T04:14:25.331Z,92.20
2018-05-31T04:16:52.865Z,92.10
2018-05-31T04:19:21.203Z,92.20
2018-05-31T04:21:49.167Z,92.20
2018-05-31T04:24:16.733Z,91.90
2018-05-31T04:26:44.299Z,92.30
2018-05-31T04:29:11.897Z,92.10
2018-05-31T04:31:39.451Z,92.40
2018-05-31T04:34:07.018Z,92.50
2018-05-31T04:36:34.629Z,92.60
2018-05-31T04:39:02.183Z,92.70
2018-05-31T04:41:29.751Z,92.80
2018-05-31T04:43:57.349Z,92.80
2018-05-31T04:46:24.933Z,92.80
2018-05-31T04:48:52.515Z,92.90
2018-05-31T04:51:20.127Z,93.00
2018-05-31T04:53:47.686Z,92.70
2018-05-31T04:56:16.477Z,92.70
2018-05-31T04:58:44.074Z,92.70
2018-05-31T05:01:11.633Z,92.70
2018-05-31T05:03:41.078Z,92.70
2018-05-31T05:06:08.672Z,92.70
2018-05-31T05:08:36.238Z,92.70
2018-05-31T05:11:03.802Z,92.70
2018-05-31T05:13:31.411Z,92.80
2018-05-31T05:15:59.022Z,92.80
2018-05-31T05:18:26.582Z,92.90
2018-05-31T05:20:54.186Z,92.60
2018-05-31T05:23:21.754Z,92.70
2018-05-31T05:25:49.339Z,92.60
2018-05-31T05:28:16.932Z,92.30
2018-05-31T05:30:44.494Z,92.40
2018-05-31T05:33:12.101Z,92.50
2018-05-31T05:35:40.202Z,92.50
2018-05-31T05:38:07.782Z,92.60
2018-05-31T05:40:35.357Z,93.00
2018-05-31T05:43:02.967Z,92.70
2018-05-31T05:45:30.533Z,92.90
2018-05-31T05:47:58.105Z,92.70
2018-05-31T05:50:25.699Z,92.70
2018-05-31T05:52:53.262Z,92.80
2018-05-31T05:55:20.822Z,92.80
2018-05-31T05:57:48.435Z,92.80
2018-05-31T06:00:15.990Z,92.60
2018-05-31T06:02:43.550Z,92.60
2018-05-31T06:05:11.151Z,92.70
2018-05-31T06:07:38.709Z,92.60
2018-05-31T06:10:06.354Z,92.50
2018-05-31T06:12:33.891Z,92.40
2018-05-31T06:15:01.452Z,92.20
2018-05-31T06:17:29.019Z,92.20
2018-05-31T06:19:56.634Z,92.20
2018-05-31T06:22:24.212Z,92.20
2018-05-31T06:24:52.555Z,92.50
2018-05-31T06:27:20.166Z,92.50
2018-05-31T06:29:47.736Z,92.20
2018-05-31T06:32:15.295Z,92.00
2018-05-31T06:34:43.714Z,91.80
2018-05-31T06:37:11.317Z,91.80
2018-05-31T06:39:38.841Z,91.80
2018-05-31T06:42:06.949Z,91.80
2018-05-31T06:44:34.477Z,91.70
2018-05-31T06:47:02.052Z,91.60
2018-05-31T06:49:29.653Z,91.40
2018-05-31T06:51:57.220Z,91.40
2018-05-31T06:54:24.831Z,91.50
2018-05-31T06:56:52.404Z,91.60
2018-05-31T06:59:19.961Z,91.50
2018-05-31T07:01:47.532Z,91.40
2018-05-31T07:04:15.135Z,91.20
2018-05-31T07:06:42.711Z,91.10
2018-05-31T07:09:10.274Z,91.20
2018-05-31T07:11:37.917Z,91.20
2018-05-31T07:14:05.813Z,91.20
2018-05-31T07:16:33.372Z,91.10
2018-05-31T07:19:00.986Z,91.10
2018-05-31T07:21:29.319Z,91.00
2018-05-31T07:23:56.890Z,91.00
2018-05-31T07:26:24.846Z,90.90
2018-05-31T07:28:52.407Z,90.80
2018-05-31T07:31:19.967Z,90.90
2018-05-31T07:33:48.052Z,90.90
2018-05-31T07:36:15.651Z,90.80
2018-05-31T07:38:43.225Z,90.70
2018-05-31T07:41:11.652Z,90.60
2018-05-31T07:43:39.219Z,90.50
2018-05-31T07:46:06.806Z,90.30
2018-05-31T07:48:34.411Z,90.10
2018-05-31T07:51:01.967Z,90.00
2018-05-31T07:53:29.535Z,89.80
2018-05-31T07:55:57.200Z,89.70
2018-05-31T07:58:24.818Z,89.70
2018-05-31T08:00:52.343Z,89.60
2018-05-31T08:03:19.964Z,89.00
2018-05-31T08:05:47.553Z,88.70
2018-05-31T08:08:15.082Z,88.00
2018-05-31T08:10:42.710Z,87.00
2018-05-31T08:13:10.293Z,86.70
2018-05-31T08:15:38.620Z,85.70
2018-05-31T08:18:07.111Z,85.70
2018-05-31T08:20:34.675Z,84.90
2018-05-31T08:23:02.240Z,84.50
2018-05-31T08:25:29.840Z,84.70
2018-05-31T08:27:58.171Z,84.50
2018-05-31T08:30:25.722Z,84.40
2018-05-31T08:32:54.267Z,84.60
2018-05-31T08:35:22.594Z,84.30
2018-05-31T08:37:50.146Z,84.30
2018-05-31T08:40:17.762Z,84.40
2018-05-31T08:42:46.092Z,84.30
2018-05-31T08:45:13.645Z,84.20
2018-05-31T08:47:41.758Z,83.70
2018-05-31T08:50:09.310Z,83.20
2018-05-31T08:52:36.868Z,82.30
2018-05-31T08:55:04.486Z,81.40
2018-05-31T08:57:32.045Z,81.40
2018-05-31T08:59:59.598Z,80.80
2018-05-31T09:02:27.204Z,80.30
2018-05-31T09:04:54.762Z,79.80
2018-05-31T09:07:22.321Z,79.40
2018-05-31T09:09:49.935Z,80.00
2018-05-31T09:12:18.266Z,80.50
2018-05-31T09:14:45.828Z,80.40
2018-05-31T09:17:13.465Z,79.70
2018-05-31T09:19:41.051Z,79.70
2018-05-31T09:22:08.600Z,78.40
2018-05-31T09:24:36.216Z,77.20
2018-05-31T09:27:03.751Z,76.40
2018-05-31T09:29:31.313Z,75.80
2018-05-31T09:31:58.919Z,75.80
2018-05-31T09:34:26.469Z,76.00
2018-05-31T09:36:54.023Z,74.70
2018-05-31T09:39:22.455Z,73.30
2018-05-31T09:41:50.017Z,74.00
2018-05-31T09:44:17.568Z,72.50
2018-05-31T09:46:45.187Z,72.40
2018-05-31T09:49:13.504Z,73.10
2018-05-31T09:51:41.056Z,73.10
2018-05-31T09:54:09.056Z,72.60
2018-05-31T09:56:36.614Z,71.80
2018-05-31T09:59:04.173Z,70.70
2018-05-31T10:01:31.784Z,70.50
2018-05-31T10:04:00.109Z,69.00
2018-05-31T10:06:27.667Z,69.00
2018-05-31T10:08:56.253Z,68.20
2018-05-31T10:11:23.819Z,68.10
2018-05-31T10:13:51.380Z,67.60
2018-05-31T10:16:18.986Z,68.00
2018-05-31T10:18:47.310Z,67.80
2018-05-31T10:21:14.857Z,67.80
2018-05-31T10:23:42.805Z,68.50
2018-05-31T10:26:10.365Z,68.20
2018-05-31T10:28:38.688Z,67.80
2018-05-31T10:31:06.328Z,67.80
2018-05-31T10:33:33.909Z,67.90
2018-05-31T10:36:01.476Z,68.10
2018-05-31T10:38:29.073Z,68.40
2018-05-31T10:40:56.620Z,68.10
2018-05-31T10:43:24.184Z,67.90
2018-05-31T10:45:52.758Z,67.80
2018-05-31T10:48:20.316Z,67.80
2018-05-31T10:50:47.876Z,68.30
2018-05-31T10:53:15.478Z,67.30
2018-05-31T10:55:43.807Z,66.90
2018-05-31T10:58:11.365Z,66.20
2018-05-31T11:00:39.004Z,66.20
2018-05-31T11:03:06.556Z,66.70
2018-05-31T11:05:34.113Z,66.40
2018-05-31T11:08:01.726Z,66.10
2018-05-31T11:10:29.282Z,64.90
2018-05-31T11:12:56.833Z,64.70
2018-05-31T11:15:24.435Z,65.00
2018-05-31T11:17:51.988Z,64.80
2018-05-31T11:20:19.540Z,64.50
2018-05-31T11:22:47.176Z,64.60
2018-05-31T11:25:14.736Z,64.70
2018-05-31T11:27:42.295Z,64.30
2018-05-31T11:30:09.910Z,64.30
2018-05-31T11:32:38.230Z,64.20
2018-05-31T11:35:05.851Z,64.10
2018-05-31T11:37:33.424Z,64.20
2018-05-31T11:40:00.977Z,64.10
2018-05-31T11:42:28.540Z,64.60
2018-05-31T11:44:56.915Z,63.80
2018-05-31T11:47:24.469Z,63.70
2018-05-31T11:49:52.786Z,63.70
2018-05-31T11:52:21.292Z,63.70
2018-05-31T11:54:48.850Z,63.40
2018-05-31T11:57:16.419Z,63.70
2018-05-31T11:59:44.019Z,63.20
2018-05-31T12:02:12.355Z,62.90
2018-05-31T12:04:39.909Z,62.90
2018-05-31T12:07:07.517Z,62.50
2018-05-31T12:09:35.840Z,61.80
2018-05-31T12:12:03.393Z,61.70
2018-05-31T12:14:30.988Z,61.10
2018-05-31T12:16:58.540Z,60.30
2018-05-31T12:19:26.097Z,59.50
2018-05-31T12:21:54.588Z,59.80
2018-05-31T12:24:22.143Z,58.70
2018-05-31T12:26:49.720Z,57.50
2018-05-31T12:29:17.325Z,56.40
2018-05-31T12:31:44.886Z,56.00
2018-05-31T12:34:12.445Z,55.20
2018-05-31T12:36:40.076Z,55.40
2018-05-31T12:39:07.624Z,54.80
2018-05-31T12:41:35.183Z,54.00
2018-05-31T12:44:02.820Z,51.90
2018-05-31T12:46:30.364Z,50.60
2018-05-31T12:48:57.917Z,51.80
2018-05-31T12:51:25.537Z,52.30
2018-05-31T12:53:53.092Z,53.40
2018-05-31T12:56:20.648Z,53.70
2018-05-31T12:58:48.713Z,54.20
2018-05-31T13:01:16.274Z,54.20
2018-05-31T13:03:43.827Z,54.50
2018-05-31T13:06:11.426Z,54.80
2018-05-31T13:08:38.995Z,54.50
2018-05-31T13:11:06.555Z,54.30
2018-05-31T13:13:34.961Z,53.70
2018-05-31T13:16:03.269Z,54.10
2018-05-31T13:18:30.816Z,54.00
2018-05-31T13:20:58.516Z,53.80
2018-05-31T13:23:26.064Z,53.90
2018-05-31T13:25:53.610Z,54.10
2018-05-31T13:28:21.246Z,53.40
2018-05-31T13:30:48.787Z,53.80
2018-05-31T13:33:17.675Z,52.40
2018-05-31T13:35:46.855Z,51.30
2018-05-31T13:38:14.416Z,51.70
2018-05-31T13:40:41.977Z,50.70
2018-05-31T13:43:09.628Z,50.30
2018-05-31T13:45:37.144Z,49.40
2018-05-31T13:48:04.699Z,49.00
2018-05-31T13:50:33.328Z,49.40
2018-05-31T13:53:00.885Z,50.10
2018-05-31T13:55:28.448Z,50.70
2018-05-31T13:57:56.050Z,51.10
2018-05-31T14:00:24.378Z,51.70
2018-05-31T14:02:51.939Z,51.40
2018-05-31T14:05:19.535Z,51.70
2018-05-31T14:07:47.089Z,51.50
2018-05-31T14:10:15.411Z,52.20
2018-05-31T14:12:43.776Z,52.00
2018-05-31T14:15:12.093Z,51.10
2018-05-31T14:17:39.652Z,51.60
2018-05-31T14:20:07.248Z,52.70
2018-05-31T14:22:34.814Z,52.50
2018-05-31T14:25:02.361Z,51.70
2018-05-31T14:27:29.959Z,51.70
2018-05-31T14:29:58.283Z,50.70
2018-05-31T14:32:26.913Z,50.50
2018-05-31T14:34:54.483Z,50.60
2018-05-31T14:37:22.799Z,50.90
2018-05-31T14:39:50.357Z,50.80
2018-05-31T14:42:17.991Z,51.10
2018-05-31T14:44:46.324Z,52.10
2018-05-31T14:47:13.876Z,52.70
2018-05-31T14:49:41.493Z,51.90
2018-05-31T14:52:09.814Z,52.90
2018-05-31T14:54:37.373Z,52.80
2018-05-31T14:57:04.985Z,52.70
2018-05-31T14:59:32.551Z,53.00
2018-05-31T15:02:00.094Z,51.90
2018-05-31T15:04:27.728Z,51.40
2018-05-31T15:06:55.290Z,51.10
2018-05-31T15:09:22.845Z,48.30
2018-05-31T15:11:50.493Z,48.20
2018-05-31T15:14:18.041Z,48.50
2018-05-31T15:16:45.607Z,48.40
2018-05-31T15:19:13.202Z,47.80
2018-05-31T15:21:40.771Z,47.50
2018-05-31T15:24:08.332Z,46.90
2018-05-31T15:26:35.931Z,46.20
2018-05-31T15:29:04.256Z,45.70
2018-05-31T15:31:31.812Z,45.50
2018-05-31T15:33:59.905Z,45.40
2018-05-31T15:36:27.447Z,45.10
2018-05-31T15:38:55.004Z,44.00
2018-05-31T15:41:23.086Z,44.20
2018-05-31T15:43:50.640Z,43.60
2018-05-31T15:46:18.194Z,43.60
2018-05-31T15:48:45.790Z,43.50
2018-05-31T15:51:13.354Z,43.60
2018-05-31T15:53:40.911Z,43.70
2018-05-31T15:56:09.344Z,43.90
2018-05-31T15:58:36.895Z,42.80
2018-05-31T16:01:04.452Z,42.50
2018-05-31T16:03:33.385Z,43.80
2018-05-31T16:06:00.940Z,43.80
2018-05-31T16:08:28.493Z,44.00
2018-05-31T16:10:56.130Z,44.00
2018-05-31T16:13:24.443Z,44.30
2018-05-31T16:15:52.000Z,44.20
2018-05-31T16:18:19.610Z,43.90
2018-05-31T16:20:47.164Z,43.90
2018-05-31T16:23:14.719Z,44.20
2018-05-31T16:25:42.989Z,44.30
2018-05-31T16:28:10.547Z,43.80
2018-05-31T16:30:38.098Z,43.90
2018-05-31T16:33:05.735Z,44.20
2018-05-31T16:35:33.300Z,44.60
2018-05-31T16:38:00.853Z,44.80
2018-05-31T16:40:28.456Z,44.50
2018-05-31T16:42:56.016Z,45.10
2018-05-31T16:45:23.575Z,45.40
2018-05-31T16:47:51.511Z,45.60
2018-05-31T16:50:19.068Z,45.60
2018-05-31T16:52:46.636Z,45.60
2018-05-31T16:55:14.271Z,45.80
2018-05-31T16:57:42.599Z,46.30
2018-05-31T17:00:10.156Z,46.20
2018-05-31T17:02:38.237Z,46.20
2018-05-31T17:05:05.792Z,46.30
2018-05-31T17:07:33.347Z,46.10
2018-05-31T17:10:01.427Z,45.90
2018-05-31T17:12:28.994Z,46.10
2018-05-31T17:14:56.604Z,45.80
2018-05-31T17:17:24.223Z,45.20
2018-05-31T17:19:51.741Z,45.10
2018-05-31T17:22:19.292Z,44.40
2018-05-31T17:24:46.900Z,44.30
2018-05-31T17:27:14.463Z,44.50
2018-05-31T17:29:42.028Z,44.70
2018-05-31T17:32:10.192Z,44.70
2018-05-31T17:34:37.742Z,44.60
2018-05-31T17:37:05.297Z,44.80
2018-05-31T17:39:33.379Z,45.10
2018-05-31T17:42:00.942Z,45.40
2018-05-31T17:44:28.491Z,45.80
2018-05-31T17:46:56.099Z,46.30
2018-05-31T17:49:23.652Z,46.90
2018-05-31T17:51:51.209Z,47.20
2018-05-31T17:54:18.842Z,47.50
2018-05-31T17:56:46.392Z,47.90
2018-05-31T17:59:13.964Z,48.30
2018-05-31T18:01:41.578Z,48.40
2018-05-31T18:04:09.929Z,49.50
2018-05-31T18:06:37.448Z,49.40
2018-05-31T18:09:08.623Z,49.90
2018-05-31T18:11:36.179Z,50.40
2018-05-31T18:14:03.724Z,50.60
2018-05-31T18:16:31.671Z,50.50
2018-05-31T18:18:59.227Z,50.80
2018-05-31T18:21:27.555Z,51.30
2018-05-31T18:23:55.180Z,51.20
2018-05-31T18:26:22.736Z,51.40
2018-05-31T18:28:50.296Z,51.80
2018-05-31T18:31:17.943Z,52.20
2018-05-31T18:33:45.504Z,52.70
2018-05-31T18:36:13.822Z,53.70
2018-05-31T18:38:41.425Z,53.70
2018-05-31T18:41:08.988Z,54.20
2018-05-31T18:43:36.541Z,54.90
2018-05-31T18:46:04.185Z,55.80
2018-05-31T18:48:31.737Z,55.70
2018-05-31T18:50:59.291Z,56.00
2018-05-31T18:53:26.906Z,56.10
2018-05-31T18:55:55.257Z,56.50
2018-05-31T18:58:22.812Z,56.50
2018-05-31T19:00:50.445Z,56.80
2018-05-31T19:03:18.002Z,57.10
2018-05-31T19:05:45.554Z,57.60
2018-05-31T19:08:13.161Z,58.10
2018-05-31T19:10:40.714Z,58.50
2018-05-31T19:13:26.169Z,58.90
2018-05-31T19:15:53.701Z,59.20
2018-05-31T19:18:40.227Z,60.40
2018-05-31T19:21:07.775Z,60.40
2018-05-31T19:23:36.102Z,61.20
2018-05-31T19:26:03.700Z,61.10
2018-05-31T19:28:31.248Z,61.60
2018-05-31T19:31:10.578Z,62.10
2018-05-31T19:33:38.145Z,62.30
2018-05-31T19:36:23.655Z,62.60
2018-05-31T19:38:51.214Z,63.30
2018-05-31T19:41:18.764Z,65.10
2018-05-31T19:44:04.611Z,64.30
2018-05-31T19:46:32.187Z,64.10
2018-05-31T19:48:59.739Z,64.50
2018-05-31T19:51:45.323Z,65.20
2018-05-31T19:54:12.898Z,65.70
2018-05-31T19:56:40.441Z,65.40
2018-05-31T19:59:26.276Z,65.50
2018-05-31T20:02:11.969Z,66.20
2018-05-31T20:04:40.340Z,67.80
2018-05-31T20:07:07.893Z,67.70
2018-05-31T20:09:35.469Z,68.10
2018-05-31T20:12:03.848Z,68.20
2018-05-31T20:14:31.437Z,68.20
2018-05-31T20:16:59.721Z,68.40
2018-05-31T20:19:27.323Z,68.50
2018-05-31T20:21:54.890Z,68.90
2018-05-31T20:24:22.449Z,69.30
2018-05-31T20:26:50.057Z,69.60
2018-05-31T20:29:17.613Z,70.00
2018-05-31T20:31:45.180Z,70.60
2018-05-31T20:34:13.139Z,70.30
2018-05-31T20:36:41.045Z,70.60
2018-05-31T20:39:08.606Z,71.00
2018-05-31T20:41:36.214Z,71.50
2018-05-31T20:44:03.764Z,72.10
2018-05-31T20:46:31.320Z,72.50
2018-05-31T20:48:58.960Z,73.10
2018-05-31T20:51:26.511Z,73.40
2018-05-31T20:53:54.068Z,73.70
2018-05-31T20:56:22.187Z,73.80
2018-05-31T20:58:50.514Z,74.50
2018-05-31T21:01:18.079Z,74.40
2018-05-31T21:03:45.681Z,75.00
2018-05-31T21:06:13.235Z,75.30
2018-05-31T21:08:40.797Z,75.40
2018-05-31T21:11:08.392Z,75.60
2018-05-31T21:13:35.951Z,75.90
2018-05-31T21:16:04.275Z,75.10
2018-05-31T21:18:31.914Z,75.10
2018-05-31T21:20:59.477Z,75.30
2018-05-31T21:23:27.031Z,75.40
2018-05-31T21:25:55.945Z,75.90
2018-05-31T21:28:23.508Z,75.80
2018-05-31T21:30:51.060Z,75.80
2018-05-31T21:33:19.629Z,75.90
2018-05-31T21:35:47.189Z,75.80
2018-05-31T21:38:14.748Z,75.90
2018-05-31T21:40:42.340Z,75.90
2018-05-31T21:43:09.890Z,75.90
2018-05-31T21:45:37.490Z,75.90
2018-05-31T21:48:05.046Z,76.00
2018-05-31T21:50:32.602Z,75.90
2018-05-31T21:53:00.164Z,75.90
2018-05-31T21:55:27.797Z,75.90
2018-05-31T21:57:55.351Z,75.80
2018-05-31T22:00:28.405Z,75.30
2018-05-31T22:02:56.769Z,75.50
2018-05-31T22:05:24.326Z,75.50
2018-05-31T22:07:51.877Z,75.80
2018-05-31T22:10:19.784Z,76.00
2018-05-31T22:12:48.109Z,75.90
2018-05-31T22:15:15.669Z,75.90
2018-05-31T22:17:43.286Z,75.90
2018-05-31T22:20:11.609Z,76.60
2018-05-31T22:22:39.171Z,76.50
2018-05-31T22:25:06.762Z,76.70
2018-05-31T22:27:34.340Z,77.00
2018-05-31T22:30:02.675Z,77.30
2018-05-31T22:32:30.257Z,77.20
2018-05-31T22:34:57.818Z,77.10
2018-05-31T22:37:25.380Z,76.80
2018-05-31T22:39:53.483Z,76.10
2018-05-31T22:42:21.809Z,75.50
2018-05-31T22:44:49.390Z,75.50
2018-05-31T22:47:18.541Z,75.60
2018-05-31T22:49:46.060Z,75.80
2018-05-31T22:52:13.628Z,76.40
2018-05-31T22:54:41.986Z,76.90
2018-05-31T22:57:09.539Z,76.80
2018-05-31T22:59:37.089Z,77.40
2018-05-31T23:02:05.058Z,77.80
2018-05-31T23:04:32.613Z,78.30
2018-05-31T23:07:00.169Z,78.90
2018-05-31T23:09:28.151Z,80.00
2018-05-31T23:11:55.734Z,81.60
2018-05-31T23:14:23.284Z,82.80
2018-05-31T23:16:50.877Z,83.60
2018-05-31T23:19:19.197Z,85.60
2018-05-31T23:21:46.762Z,84.80
2018-05-31T23:24:14.372Z,85.10
2018-05-31T23:26:41.921Z,85.40
2018-05-31T23:29:09.485Z,85.40
2018-05-31T23:31:37.075Z,85.90
2018-05-31T23:34:05.411Z,87.10
2018-05-31T23:36:32.969Z,87.10
2018-05-31T23:39:00.557Z,86.60
2018-05-31T23:41:28.112Z,86.60
2018-05-31T23:43:55.671Z,86.60
2018-05-31T23:46:23.286Z,87.10
2018-05-31T23:48:50.847Z,87.70
2018-05-31T23:51:18.410Z,87.80
2018-05-31T23:53:46.009Z,88.10
2018-05-31T23:56:13.628Z,88.50
2018-05-31T23:58:41.147Z,88.80
